Time;durP1;ratioP1;P1;durP2;ratioP2;P2;SDS_P1;SDS_P2;PMS_P1;PMS_P2;Temp;Humidity;BMP_temperature;BMP_pressure;BME280_temperature;BME280_humidity;BME280_pressure;Samples;Min_cycle;Max_cycle;Signal;HPM_P1;HPM_P2
2023/07/04 00:01:12;;;;;;;9.40;5.95;;;20.00;60.80;;;19.04;70.87;95807.22;4990742;28;20026;-68
2023/07/04 00:03:41;;;;;;;11.55;6.25;;;20.00;60.60;;;19.04;70.20;95815.22;4993769;28;20414;-67
2023/07/04 00:06:15;;;;;;;10.38;5.68;;;20.00;60.80;;;19.07;70.83;95814.72;4982148;28;20038;-68
2023/07/04 00:08:41;;;;;;;11.02;6.25;;;20.10;60.80;;;19.04;70.35;95815.22;4977210;28;20022;-68
2023/07/04 00:11:08;;;;;;;9.20;5.90;;;20.00;60.80;;;19.04;71.15;95810.72;4998806;28;20038;-68
2023/07/04 00:13:35;;;;;;;13.80;6.57;;;20.00;60.80;;;19.02;70.64;95802.16;4985123;28;23138;-67
2023/07/04 00:16:01;;;;;;;7.85;5.50;;;20.00;60.80;;;19.03;71.21;95802.97;4990645;28;20491;-67
2023/07/04 00:18:27;;;;;;;13.70;6.78;;;20.00;60.90;;;19.04;71.40;95793.91;4989732;28;20104;-67
2023/07/04 00:20:58;;;;;;;8.95;5.57;;;20.00;60.70;;;19.04;70.86;95794.72;4990109;28;20030;-67
2023/07/04 00:23:33;;;;;;;10.00;5.80;;;20.00;60.80;;;19.02;70.46;95796.03;5018341;28;20033;-67
2023/07/04 00:26:00;;;;;;;11.45;6.10;;;20.00;60.60;;;19.04;70.18;95809.91;4980091;28;20286;-68
2023/07/04 00:28:26;;;;;;;12.43;5.15;;;20.00;60.80;;;19.03;71.12;95809.09;4994153;28;20026;-67
2023/07/04 00:30:53;;;;;;;8.32;5.40;;;20.10;60.80;;;19.06;70.40;95807.78;5009073;28;20057;-68
2023/07/04 00:33:24;;;;;;;12.35;6.00;;;20.00;60.60;;;19.06;70.95;95807.78;5007073;28;20056;-69
2023/07/04 00:36:00;;;;;;;10.38;6.20;;;20.10;60.40;;;19.07;71.50;95814.72;4983903;28;20030;-67
2023/07/04 00:38:32;;;;;;;13.27;5.93;;;20.00;60.40;;;19.05;71.03;95811.50;5005701;28;20080;-68
2023/07/04 00:41:15;;;;;;;11.02;5.68;;;20.00;60.70;;;19.05;71.85;95809.66;5006065;28;20065;-68
2023/07/04 00:43:58;;;;;;;8.93;5.25;;;20.00;60.80;;;19.06;71.50;95810.47;4978277;28;20165;-68
2023/07/04 00:46:37;;;;;;;10.00;5.13;;;20.10;61.10;;;19.06;72.23;95818.44;5001199;22;20037;-68
2023/07/04 00:49:22;;;;;;;7.97;5.60;;;20.10;61.10;;;19.05;72.03;95819.50;5017012;28;20049;-67
2023/07/04 00:52:04;;;;;;;14.60;5.57;;;20.10;61.10;;;19.05;71.63;95814.19;4979569;28;20040;-68
2023/07/04 00:54:47;;;;;;;9.27;5.55;;;20.10;61.30;;;19.00;72.82;95819.44;4980018;28;20551;-68
2023/07/04 00:57:14;;;;;;;10.23;5.60;;;20.00;61.30;;;18.98;71.96;95828.47;4990333;28;20486;-69
2023/07/04 00:59:45;;;;;;;9.63;5.88;;;20.10;61.30;;;18.96;71.84;95819.94;4998551;28;20143;-68
2023/07/04 01:02:16;;;;;;;12.32;6.20;;;20.10;61.40;;;18.94;72.96;95824.69;5000283;28;20022;-68
2023/07/04 01:04:41;;;;;;;;;;;19.90;62.00;;;18.90;73.69;95828.91;5000355;28;20025;-67
2023/07/04 01:07:35;;;;;;;11.93;5.82;;;19.90;62.20;;;18.86;73.06;95838.47;4996211;28;19913;-66
2023/07/04 01:10:12;;;;;;;9.52;5.03;;;19.90;62.20;;;18.84;74.53;95839.78;5012036;28;20049;-66
2023/07/04 01:12:39;;;;;;;9.02;5.10;;;19.80;62.50;;;18.79;73.55;95840.53;4998144;28;20132;-66
2023/07/04 01:15:06;;;;;;;8.75;5.53;;;19.80;62.50;;;18.78;73.53;95849.53;5015430;28;20501;-66
2023/07/04 01:17:32;;;;;;;13.20;5.63;;;19.70;62.60;;;18.76;72.85;95846.31;5000402;28;20037;-67
2023/07/04 01:19:58;;;;;;;11.00;5.35;;;19.70;62.60;;;18.72;74.11;95855.84;5015364;28;20132;-67
2023/07/04 01:22:45;;;;;;;8.05;5.10;;;19.60;63.40;;;18.67;76.52;95864.59;4998216;28;20628;-67
2023/07/04 01:25:14;;;;;;;9.85;5.05;;;19.50;64.40;;;18.64;75.19;95864.28;5015067;28;20037;-68
2023/07/04 01:27:42;;;;;;;11.13;5.10;;;19.50;64.40;;;18.61;75.94;95865.56;4997806;28;20032;-69
2023/07/04 01:30:08;;;;;;;10.13;4.70;;;19.50;64.50;;;18.58;76.17;95873.22;5014901;28;20030;-68
2023/07/04 01:32:34;;;;;;;8.07;4.63;;;19.50;64.40;;;18.57;75.31;95869.75;5017396;28;20034;-66
2023/07/04 01:35:00;;;;;;;7.38;5.05;;;19.60;64.20;;;18.55;77.03;95876.34;5032515;28;20029;-68
2023/07/04 01:37:29;;;;;;;10.27;5.40;;;19.60;64.30;;;18.54;77.11;95874.75;5013430;28;20044;-68
2023/07/04 01:39:59;;;;;;;8.75;5.38;;;19.50;64.40;;;18.53;77.89;95881.13;5013974;28;20046;-67
2023/07/04 01:42:31;;;;;;;11.55;4.88;;;19.50;64.40;;;18.50;76.76;95889.59;5028964;28;20038;-66
2023/07/04 01:45:04;;;;;;;10.65;5.60;;;19.40;65.60;;;18.47;79.48;95895.41;4998540;28;20053;-67
2023/07/04 01:47:31;;;;;;;11.82;5.38;;;19.30;66.60;;;18.41;79.56;95891.88;5013234;28;20040;-67
2023/07/04 01:49:57;;;;;;;10.80;5.20;;;19.20;67.90;;;18.29;81.33;95889.28;4998279;28;20033;-66
2023/07/04 01:52:23;;;;;;;9.02;5.40;;;19.10;68.70;;;18.21;82.38;95896.88;5013817;28;20511;-67
2023/07/04 01:54:49;;;;;;;10.75;5.68;;;19.10;69.00;;;18.18;82.84;95903.50;4998153;28;20493;-67
2023/07/04 01:57:15;;;;;;;8.00;5.00;;;19.10;69.50;;;18.12;84.49;95911.66;5031044;28;20083;-68
2023/07/04 01:59:40;;;;;;;9.75;5.20;;;19.00;69.50;;;18.07;84.82;95912.34;5013915;28;20532;-66
2023/07/04 02:02:06;;;;;;;7.35;5.00;;;19.00;69.90;;;18.03;85.62;95916.53;5031797;28;20038;-66
2023/07/04 02:04:32;;;;;;;10.32;6.03;;;19.00;70.20;;;17.97;86.73;95898.88;5010995;28;20034;-67
2023/07/04 02:06:57;;;;;;;8.15;5.15;;;18.90;70.50;;;17.93;86.47;95913.72;5013903;28;20033;-67
2023/07/04 02:09:26;;;;;;;9.13;4.78;;;18.80;70.60;;;17.87;87.42;95912.00;5012886;28;20513;-67
2023/07/04 02:11:52;;;;;;;8.45;5.10;;;18.70;70.80;;;17.83;87.04;95916.19;5029508;28;20037;-67
2023/07/04 02:14:18;;;;;;;7.75;5.00;;;18.60;70.70;;;17.77;87.42;95917.94;4997511;28;20029;-66
2023/07/04 02:16:44;;;;;;;8.38;4.95;;;18.60;71.40;;;17.72;87.54;95926.66;5013694;28;20025;-67
2023/07/04 02:19:10;;;;;;;9.27;5.43;;;18.60;71.60;;;17.65;88.94;95915.31;5013144;28;20416;-67
2023/07/04 02:21:35;;;;;;;9.77;5.07;;;18.40;72.10;;;17.59;89.40;95918.91;4996723;28;20037;-65
2023/07/04 02:24:02;;;;;;;6.90;4.70;;;18.40;72.10;;;17.55;90.47;95922.28;4997789;28;20520;-66
2023/07/04 02:26:28;;;;;;;6.45;4.50;;;18.50;72.50;;;17.48;90.23;95927.75;5013116;28;20080;-67
2023/07/04 02:28:54;;;;;;;6.38;4.18;;;18.30;72.70;;;17.39;91.15;95915.84;5012726;28;20025;-66
2023/07/04 02:31:20;;;;;;;9.55;4.70;;;18.10;73.30;;;17.34;91.94;95923.72;4996286;28;20037;-65
2023/07/04 02:33:45;;;;;;;8.02;4.60;;;18.10;73.30;;;17.29;92.20;95932.41;5030293;28;20022;-67
2023/07/04 02:36:11;;;;;;;8.10;4.80;;;18.10;73.80;;;17.27;93.41;95923.88;5027884;28;20065;-63
2023/07/04 02:38:41;;;;;;;8.93;5.10;;;18.10;74.40;;;17.23;95.07;95927.25;5010031;28;20409;-65
2023/07/04 02:41:07;;;;;;;8.20;4.30;;;18.10;74.80;;;17.17;95.30;95923.66;5026654;28;20084;-68
2023/07/04 02:43:33;;;;;;;9.35;4.40;;;18.10;75.00;;;17.14;96.27;95913.50;5010423;28;20026;-69
2023/07/04 02:46:00;;;;;;;7.05;4.03;;;18.00;74.90;;;17.13;97.41;95923.31;5011637;28;20038;-66
2023/07/04 02:48:26;;;;;;;9.32;4.13;;;18.00;75.50;;;17.09;98.33;95927.47;4992684;28;20060;-66
2023/07/04 02:50:52;;;;;;;9.35;4.47;;;18.00;75.80;;;17.07;98.51;95924.25;5011865;28;20033;-68
2023/07/04 02:53:21;;;;;;;6.43;3.88;;;18.00;75.70;;;17.06;98.70;95921.84;4994734;28;20535;-66
2023/07/04 02:55:51;;;;;;;12.38;4.57;;;18.00;76.00;;;17.03;100.00;95925.78;5012078;28;20706;-66
2023/07/04 02:58:17;;;;;;;7.50;4.43;;;18.00;75.90;;;17.03;99.91;95932.94;5011660;28;20045;-67
2023/07/04 03:00:42;;;;;;;7.90;4.07;;;18.10;76.10;;;17.00;100.00;95922.78;4994512;28;20040;-66
2023/07/04 03:03:08;;;;;;;10.02;4.20;;;17.90;76.20;;;16.97;100.00;95924.03;5011266;28;20061;-66
2023/07/04 03:05:37;;;;;;;10.13;4.85;;;18.00;76.60;;;16.99;100.00;95915.84;4994004;28;20045;-66
2023/07/04 03:08:03;;;;;;;7.55;4.00;;;18.00;76.80;;;16.96;100.00;95913.63;5028707;28;20683;-66
2023/07/04 03:10:30;;;;;;;9.55;5.05;;;18.00;76.70;;;16.92;100.00;95915.94;5010694;28;20163;-67
2023/07/04 03:12:55;;;;;;;7.93;3.95;;;18.00;76.90;;;16.90;100.00;95911.91;4994757;28;20065;-66
2023/07/04 03:15:21;;;;;;;7.38;4.65;;;18.00;76.90;;;16.89;100.00;95904.97;5010141;28;20033;-66
2023/07/04 03:17:48;;;;;;;7.22;4.03;;;18.00;76.90;;;16.86;100.00;95906.25;5028295;28;20519;-66
2023/07/04 03:20:14;;;;;;;9.40;5.90;;;17.90;76.90;;;16.80;100.00;95912.50;4994203;28;20615;-66
2023/07/04 03:22:40;;;;;;;8.45;5.40;;;17.90;77.10;;;16.81;100.00;95912.28;5010258;28;20063;-67
2023/07/04 03:25:06;;;;;;;8.02;4.60;;;17.80;77.20;;;16.79;100.00;95916.22;4994619;28;20033;-66
2023/07/04 03:27:36;;;;;;;8.88;6.28;;;17.80;77.40;;;16.75;100.00;95913.22;5009604;28;20120;-68
2023/07/04 03:30:03;;;;;;;8.55;4.97;;;17.80;77.60;;;16.77;100.00;95915.63;4994597;28;20545;-66
2023/07/04 03:32:32;;;;;;;13.02;9.20;;;17.80;77.30;;;16.75;100.00;95905.25;5026593;28;20075;-67
2023/07/04 03:35:01;;;;;;;12.77;8.93;;;17.80;77.60;;;16.75;100.00;95915.06;4993399;28;20532;-68
2023/07/04 03:37:31;;;;;;;12.68;5.90;;;17.80;77.50;;;16.72;100.00;95904.88;5007406;28;20521;-68
2023/07/04 03:39:56;;;;;;;7.90;6.20;;;17.80;77.50;;;16.69;100.00;95915.97;4994840;28;20578;-69
2023/07/04 03:42:25;;;;;;;10.40;7.13;;;17.80;77.60;;;16.70;100.00;95922.91;5009859;28;20112;-65
2023/07/04 03:44:52;;;;;;;9.13;6.10;;;17.80;77.60;;;16.68;100.00;95930.28;4994728;28;20029;-66
2023/07/04 03:47:17;;;;;;;9.32;5.78;;;17.80;77.50;;;16.69;100.00;95923.94;5009550;28;20037;-67
2023/07/04 03:49:43;;;;;;;10.20;7.00;;;17.90;77.40;;;16.68;100.00;95919.66;5010862;28;20418;-69
2023/07/04 03:52:09;;;;;;;11.05;6.18;;;17.80;77.50;;;16.68;100.00;95924.97;5011438;28;20091;-65
2023/07/04 03:54:35;;;;;;;9.82;4.93;;;17.80;77.30;;;16.68;100.00;95924.97;4993346;28;20042;-66
2023/07/04 03:57:01;;;;;;;6.60;4.25;;;17.80;77.10;;;16.69;100.00;95942.53;5010219;28;20049;-65
2023/07/04 03:59:26;;;;;;;8.88;4.20;;;17.80;77.30;;;16.68;100.00;95943.56;5010352;28;20462;-66
2023/07/04 04:01:52;;;;;;;5.82;4.20;;;17.80;77.40;;;16.70;100.00;95944.13;4994847;28;20123;-68
2023/07/04 04:04:20;;;;;;;8.05;4.10;;;17.80;77.20;;;16.72;100.00;95942.88;5012201;28;20030;-66
2023/07/04 04:06:49;;;;;;;7.65;3.92;;;17.80;77.30;;;16.74;100.00;95953.25;4994781;28;20025;-67
2023/07/04 04:09:15;;;;;;;11.38;7.70;;;17.80;77.40;;;16.77;100.00;95950.16;4996432;28;20393;-65
2023/07/04 04:11:41;;;;;;;8.68;5.70;;;18.00;77.20;;;16.81;100.00;95951.31;5029450;28;20030;-66
2023/07/04 04:14:08;;;;;;;9.02;6.38;;;18.00;76.70;;;16.83;100.00;95951.88;4996176;28;20030;-65
2023/07/04 04:16:34;;;;;;;11.75;7.63;;;18.10;77.10;;;16.90;100.00;95949.91;4980432;28;20526;-67
2023/07/04 04:19:01;;;;;;;9.80;5.00;;;18.20;77.10;;;16.94;100.00;95953.72;5029880;28;20096;-65
2023/07/04 04:21:27;;;;;;;7.85;4.50;;;18.20;76.80;;;16.95;100.00;95950.03;5011387;28;20433;-68
2023/07/04 04:23:53;;;;;;;6.85;4.45;;;18.20;76.90;;;16.99;100.00;95951.19;4995734;28;20045;-67
2023/07/04 04:26:20;;;;;;;8.48;6.20;;;18.20;76.70;;;17.03;100.00;95964.81;5009705;28;20468;-66
2023/07/04 04:28:46;;;;;;;8.95;4.45;;;18.20;76.60;;;17.02;100.00;95958.69;5008213;28;20068;-66
2023/07/04 04:31:13;;;;;;;7.40;4.47;;;18.10;76.60;;;16.99;100.00;95972.44;5012059;28;20424;-65
2023/07/04 04:33:39;;;;;;;9.27;4.30;;;18.10;76.60;;;16.99;100.00;95969.00;4997819;28;20033;-66
2023/07/04 04:36:05;;;;;;;7.50;4.07;;;18.10;76.80;;;16.99;100.00;95967.13;5015983;28;20086;-66
2023/07/04 04:38:31;;;;;;;7.07;4.03;;;18.10;77.30;;;16.99;100.00;95961.03;5015500;28;20037;-69
2023/07/04 04:41:06;;;;;;;7.22;4.32;;;18.10;77.00;;;16.93;100.00;95965.38;4999426;28;20076;-68
2023/07/04 04:43:35;;;;;;;7.75;4.03;;;17.90;77.30;;;16.86;100.00;95970.03;5015066;28;20030;-66
2023/07/04 04:46:01;;;;;;;9.40;3.97;;;17.80;77.60;;;16.86;100.00;95974.53;5016474;28;20069;-67
2023/07/04 04:48:32;;;;;;;8.48;4.00;;;17.90;77.80;;;16.86;100.00;95978.00;4998723;28;20060;-67
2023/07/04 04:51:00;;;;;;;6.40;3.95;;;17.90;77.40;;;16.85;100.00;95973.72;4994261;28;20030;-66
2023/07/04 04:53:26;;;;;;;7.18;3.67;;;17.90;77.10;;;16.87;100.00;95976.13;5015243;28;20060;-66
2023/07/04 04:55:52;;;;;;;6.45;3.63;;;18.00;77.40;;;16.87;100.00;95974.28;5015667;28;20030;-66
2023/07/04 04:58:21;;;;;;;5.63;3.28;;;18.10;77.20;;;16.91;100.00;95988.72;4999238;28;20030;-66
2023/07/04 05:00:47;;;;;;;5.88;3.67;;;18.10;76.80;;;16.93;100.00;95984.00;5015489;28;20120;-66
2023/07/04 05:03:13;;;;;;;6.05;3.20;;;18.20;76.70;;;16.95;100.00;95989.06;4993503;28;20101;-65
2023/07/04 05:05:39;;;;;;;6.18;3.67;;;18.10;76.50;;;16.96;100.00;95985.38;5007239;28;20037;-68
2023/07/04 05:08:04;;;;;;;8.52;3.47;;;18.20;76.70;;;16.99;100.00;95985.75;5015418;28;20535;-67
2023/07/04 05:10:30;;;;;;;6.97;3.70;;;18.20;76.70;;;17.00;100.00;95984.69;4998679;28;20497;-66
2023/07/04 05:12:57;;;;;;;6.15;3.40;;;18.20;76.90;;;17.03;100.00;95994.84;5033134;28;20041;-66
2023/07/04 05:15:24;;;;;;;5.95;3.80;;;18.30;77.00;;;17.06;100.00;95997.06;5014780;28;20037;-68
2023/07/04 05:17:49;;;;;;;6.43;3.40;;;18.40;76.90;;;17.12;100.00;95984.69;4998918;28;20453;-67
2023/07/04 05:20:22;;;;;;;4.90;2.97;;;18.60;76.60;;;17.15;100.00;95987.66;5010664;28;20026;-66
2023/07/04 05:22:48;;;;;;;8.32;4.20;;;18.50;76.30;;;17.18;100.00;95989.06;5015104;28;20033;-66
2023/07/04 05:25:14;;;;;;;5.57;3.17;;;18.40;76.40;;;17.18;100.00;95991.72;4998641;28;20501;-66
2023/07/04 05:27:41;;;;;;;8.13;3.58;;;18.40;76.50;;;17.20;100.00;95983.50;4998250;28;20025;-66
2023/07/04 05:30:09;;;;;;;7.93;3.65;;;18.40;76.60;;;17.20;100.00;95994.97;5015418;28;20060;-67
2023/07/04 05:32:34;;;;;;;6.30;3.22;;;18.40;76.50;;;17.18;100.00;95993.56;5017587;28;20038;-66
2023/07/04 05:35:00;;;;;;;6.65;3.33;;;18.30;76.30;;;17.20;100.00;95992.31;4998762;28;20045;-67
2023/07/04 05:37:26;;;;;;;7.75;3.35;;;18.50;76.30;;;17.26;100.00;95995.88;5011325;28;20049;-66
2023/07/04 05:39:52;;;;;;;7.00;2.92;;;18.60;76.10;;;17.30;100.00;95997.03;5017253;28;20037;-66
2023/07/04 05:42:18;;;;;;;5.35;3.00;;;18.70;75.30;;;17.34;100.00;95998.97;5032462;28;20493;-68
2023/07/04 05:44:44;;;;;;;4.70;2.90;;;18.70;74.70;;;17.43;100.00;95996.78;5013819;28;20148;-67
2023/07/04 05:47:09;;;;;;;5.00;2.58;;;18.90;74.60;;;17.58;100.00;96005.06;5014499;28;20061;-67
2023/07/04 05:49:35;;;;;;;5.85;2.80;;;19.10;73.60;;;17.72;100.00;96000.31;5013563;28;20032;-67
2023/07/04 05:52:01;;;;;;;7.82;3.25;;;19.30;73.00;;;17.85;100.00;95999.22;5014708;28;20059;-67
2023/07/04 05:54:27;;;;;;;6.07;2.72;;;19.50;72.20;;;17.96;100.00;95991.22;4997924;28;20040;-69
2023/07/04 05:56:53;;;;;;;4.85;2.33;;;19.50;71.40;;;18.08;100.00;96004.47;5014344;28;20171;-68
2023/07/04 05:59:19;;;;;;;5.47;2.28;;;19.60;70.60;;;18.16;100.00;95996.09;5014330;28;20037;-67
2023/07/04 06:01:45;;;;;;;3.58;2.17;;;19.70;70.10;;;18.29;99.67;96003.78;5016651;28;20029;-69
2023/07/04 06:04:11;;;;;;;6.07;2.38;;;19.80;69.40;;;18.34;98.63;95995.91;5014523;28;20037;-69
2023/07/04 06:06:49;;;;;;;4.93;2.08;;;19.90;70.10;;;18.47;98.64;96008.09;5016701;28;20386;-67
2023/07/04 06:09:16;;;;;;;3.33;1.92;;;20.10;70.00;;;18.56;96.87;96005.84;5006189;28;20056;-67
2023/07/04 06:11:46;;;;;;;4.15;1.75;;;20.10;69.10;;;18.63;97.10;96001.19;4997375;28;20029;-69
2023/07/04 06:14:30;;;;;;;2.95;2.03;;;20.20;69.20;;;18.68;94.51;95998.63;5015013;28;20025;-69
2023/07/04 06:16:56;;;;;;;3.15;2.10;;;20.10;68.10;;;18.72;93.78;96010.41;5013973;28;20026;-69
2023/07/04 06:19:22;;;;;;;4.53;2.20;;;20.10;67.90;;;18.78;93.54;96012.09;5013356;28;20084;-68
2023/07/04 06:21:48;;;;;;;3.35;1.98;;;20.10;67.40;;;18.79;92.01;96016.41;5028815;28;20084;-67
2023/07/04 06:24:17;;;;;;;4.13;2.10;;;20.20;67.40;;;18.79;91.26;96021.72;5014252;28;20472;-67
2023/07/04 06:26:43;;;;;;;3.28;1.88;;;20.10;67.50;;;18.83;92.48;96017.53;4999641;28;20036;-68
2023/07/04 06:29:08;;;;;;;5.13;2.10;;;20.30;67.50;;;18.88;90.86;96024.78;5031754;28;20497;-69
2023/07/04 06:31:36;;;;;;;4.05;2.17;;;20.30;67.10;;;18.93;91.18;96016.84;4996680;28;20116;-69
2023/07/04 06:34:02;;;;;;;3.83;2.75;;;20.50;66.90;;;18.98;90.63;96014.25;5030212;28;20032;-69
2023/07/04 06:36:27;;;;;;;3.85;2.22;;;20.60;66.70;;;18.98;90.60;96012.41;5013505;28;20057;-68
2023/07/04 06:38:53;;;;;;;4.15;2.53;;;20.40;66.40;;;19.00;89.79;96004.16;5030281;28;20018;-68
2023/07/04 06:41:19;;;;;;;4.50;2.25;;;20.60;66.40;;;19.11;90.86;96013.13;5013376;28;20488;-67
2023/07/04 06:43:46;;;;;;;5.43;2.15;;;20.90;65.60;;;19.28;90.89;96005.91;4997042;28;20036;-68
2023/07/04 06:46:14;;;;;;;3.58;1.85;;;21.40;64.80;;;19.47;90.34;96012.59;5013501;28;20037;-68
2023/07/04 06:48:40;;;;;;;4.07;1.85;;;21.60;64.40;;;19.72;89.30;96008.66;4999505;28;20033;-70
2023/07/04 06:51:12;;;;;;;4.47;1.95;;;22.00;62.70;;;19.99;87.20;96006.84;5013766;28;20041;-68
2023/07/04 06:53:38;;;;;;;5.03;1.90;;;22.40;61.00;;;20.25;86.82;95997.22;5013529;28;20045;-67
2023/07/04 06:56:13;;;;;;;3.60;1.90;;;22.70;60.60;;;20.63;84.59;96004.28;5012663;28;20038;-68
2023/07/04 06:58:41;;;;;;;2.72;1.90;;;23.30;59.50;;;20.95;83.12;96006.13;5030629;28;20526;-68
2023/07/04 07:01:07;;;;;;;3.05;1.50;;;23.60;56.50;;;21.27;81.39;96006.09;5025626;28;20034;-67
2023/07/04 07:03:33;;;;;;;2.15;1.50;;;24.00;55.00;;;21.58;79.21;96004.41;5012428;28;20021;-68
2023/07/04 07:06:04;;;;;;;1.88;1.30;;;24.40;54.40;;;21.82;74.26;96005.59;4997175;28;20044;-67
2023/07/04 07:08:30;;;;;;;;;;;24.30;53.40;;;21.97;72.81;95992.25;5013369;28;20022;-69
2023/07/04 07:11:02;;;;;;;2.75;1.40;;;24.50;53.20;;;22.18;71.37;95986.97;5029381;28;19920;-68
2023/07/04 07:13:28;;;;;;;2.33;1.38;;;24.90;51.50;;;22.43;73.87;96004.97;4996476;28;20022;-68
2023/07/04 07:16:07;;;;;;;2.40;1.30;;;25.30;51.90;;;22.65;69.35;95978.72;5012585;28;20548;-69
2023/07/04 07:18:34;;;;;;;4.80;3.67;;;25.10;51.30;;;22.84;71.06;95989.72;5014611;28;20464;-68
2023/07/04 07:21:03;;;;;;;8.40;5.97;;;25.50;50.50;;;23.06;68.04;95979.50;4995830;28;20493;-68
2023/07/04 07:23:31;;;;;;;3.53;2.10;;;25.80;50.10;;;23.21;69.74;95989.44;4996356;28;20049;-68
2023/07/04 07:25:57;;;;;;;2.10;1.60;;;26.00;49.60;;;23.35;67.96;95990.47;5012710;28;20493;-70
2023/07/04 07:28:24;;;;;;;1.58;1.30;;;25.90;49.30;;;23.51;68.12;95993.91;4996640;28;20404;-68
2023/07/04 07:31:02;;;;;;;4.45;1.40;;;26.10;48.50;;;23.59;63.99;95977.28;5011261;28;20025;-68
2023/07/04 07:33:32;;;;;;;2.67;1.50;;;26.30;48.30;;;23.70;64.25;95976.16;4982261;28;20131;-69
2023/07/04 07:35:58;;;;;;;2.42;1.20;;;26.40;47.60;;;23.96;66.11;95992.97;5013094;28;20044;-69
2023/07/04 07:38:24;;;;;;;2.00;1.20;;;26.90;48.20;;;24.18;64.42;95981.81;5008051;28;20033;-68
2023/07/04 07:40:53;;;;;;;3.17;1.40;;;26.80;45.60;;;24.19;60.78;95951.19;5012643;28;20048;-69
2023/07/04 07:43:19;;;;;;;3.83;1.52;;;26.30;46.40;;;24.29;62.02;95978.03;5012281;28;20033;-68
2023/07/04 07:45:46;;;;;;;3.58;1.42;;;27.10;45.50;;;24.50;60.74;95973.34;5015002;28;20057;-69
2023/07/04 07:48:16;;;;;;;5.00;1.30;;;27.30;44.20;;;24.71;58.99;95947.09;5028884;28;20033;-70
2023/07/04 07:50:42;;;;;;;3.03;1.50;;;27.60;44.20;;;24.96;60.04;95960.31;5011953;28;20035;-71
2023/07/04 07:53:08;;;;;;;2.00;1.40;;;28.00;43.70;;;25.19;58.76;95948.00;5012823;28;20049;-67
2023/07/04 07:55:34;;;;;;;3.42;1.20;;;28.40;42.00;;;25.50;58.32;95948.44;5027975;28;21726;-67
2023/07/04 07:57:59;;;;;;;3.65;1.50;;;28.80;41.70;;;25.84;57.85;95947.56;5012245;28;20030;-70
2023/07/04 08:00:28;;;;;;;2.45;1.33;;;29.20;41.90;;;26.14;55.21;95936.34;5012465;28;20067;-68
2023/07/04 08:02:54;;;;;;;2.97;1.60;;;29.20;38.00;;;26.35;54.23;95928.78;4996993;28;20540;-69
2023/07/04 08:05:19;;;;;;;3.35;1.20;;;29.50;38.40;;;26.52;53.04;95934.47;5029573;28;20065;-67
2023/07/04 08:07:45;;;;;;;2.60;1.38;;;29.00;39.50;;;26.61;52.23;95929.19;5011588;28;20108;-68
2023/07/04 08:10:11;;;;;;;2.60;1.35;;;29.40;39.30;;;26.90;51.97;95922.75;5007009;28;20044;-70
2023/07/04 08:12:37;;;;;;;3.90;1.70;;;30.10;38.70;;;27.11;50.67;95926.72;4994154;28;20072;-67
2023/07/04 08:15:03;;;;;;;3.45;1.48;;;29.90;37.90;;;27.25;50.68;95921.34;5012445;28;20041;-68
2023/07/04 08:17:28;;;;;;;4.05;1.70;;;30.00;38.00;;;27.27;50.44;95909.13;5011550;28;20065;-66
2023/07/04 08:19:54;;;;;;;4.38;1.83;;;29.60;38.40;;;27.25;50.13;95921.34;5037077;28;20044;-68
2023/07/04 08:22:20;;;;;;;4.90;1.70;;;29.60;40.00;;;27.16;49.96;95913.16;5013894;28;20542;-68
2023/07/04 08:24:45;;;;;;;3.42;1.63;;;29.20;40.10;;;26.99;50.09;95912.88;4998717;28;20505;-68
2023/07/04 08:27:11;;;;;;;3.55;1.80;;;29.00;40.30;;;26.82;50.19;95916.94;5014739;28;20052;-69
2023/07/04 08:29:37;;;;;;;3.33;1.27;;;28.80;40.90;;;26.70;50.12;95927.41;5014052;28;20061;-69
2023/07/04 08:32:03;;;;;;;3.97;1.27;;;28.70;40.90;;;26.54;50.42;95918.78;5028518;28;20041;-70
2023/07/04 08:34:29;;;;;;;2.92;1.40;;;28.40;41.10;;;26.43;49.87;95921.91;5012048;28;20026;-68
2023/07/04 08:36:54;;;;;;;3.15;1.50;;;28.50;40.40;;;26.34;49.87;95919.09;5029411;28;20041;-67
2023/07/04 08:39:20;;;;;;;4.35;1.60;;;28.20;41.00;;;26.18;49.68;95923.88;5029380;28;20060;-70
2023/07/04 08:42:06;;;;;;;4.97;1.50;;;27.70;41.90;;;25.97;48.05;95909.09;5029107;28;20505;-68
2023/07/04 08:44:44;;;;;;;5.07;1.55;;;27.50;42.10;;;25.87;48.63;95909.25;5025155;28;20033;-70
2023/07/04 08:47:12;;;;;;;3.03;1.60;;;27.70;41.70;;;25.96;49.50;95923.66;4998690;28;20033;-69
2023/07/04 08:50:00;;;;;;;3.15;1.63;;;28.20;40.80;;;25.95;48.52;95911.28;4995021;28;20034;-68
2023/07/04 08:52:56;;;;;;;3.20;1.77;;;28.10;40.90;;;26.09;48.77;95914.84;5011668;28;20044;-70
2023/07/04 08:55:22;;;;;;;3.63;1.60;;;28.40;41.10;;;26.25;48.89;95924.34;5010510;28;20034;-69
2023/07/04 08:57:55;;;;;;;3.90;1.55;;;28.50;40.20;;;26.25;47.66;95905.47;4995074;28;20167;-68
2023/07/04 09:00:38;;;;;;;2.28;1.65;;;28.10;40.60;;;26.10;47.82;95908.38;4975910;28;20037;-67
2023/07/04 09:03:10;;;;;;;4.07;1.50;;;27.60;42.20;;;25.88;48.30;95921.63;5009542;28;20042;-69
2023/07/04 09:06:07;;;;;;;3.15;1.60;;;27.10;42.70;;;25.64;50.17;95929.72;4989619;28;20401;-68
2023/07/04 09:09:01;;;;;;;3.08;1.70;;;26.90;44.30;;;25.38;49.80;95929.22;5015115;28;20032;-68
2023/07/04 09:11:27;;;;;;;3.50;2.30;;;26.50;44.70;;;25.27;51.12;95947.38;5027471;28;20124;-71
2023/07/04 09:14:38;;;;;;;4.22;1.65;;;26.90;44.30;;;25.23;50.54;95934.75;5011426;28;20179;-68
2023/07/04 09:17:06;;;;;;;1.88;1.38;;;26.70;44.40;;;25.40;51.81;95945.91;5016770;28;20079;-71
2023/07/04 09:19:35;;;;;;;4.82;1.67;;;28.00;43.10;;;25.69;50.88;95936.97;4996491;28;20029;-68
2023/07/04 09:22:04;;;;;;;5.05;1.63;;;28.10;41.80;;;26.09;51.50;95933.72;4999000;28;20509;-68
2023/07/04 09:24:30;;;;;;;4.70;1.75;;;29.30;41.30;;;26.59;50.18;95920.59;4982732;28;20038;-68
2023/07/04 09:26:56;;;;;;;2.15;1.40;;;29.50;38.90;;;26.84;48.47;95917.44;4997037;28;20038;-68
2023/07/04 09:29:24;;;;;;;3.08;1.83;;;29.50;38.50;;;27.03;47.35;95913.91;4998635;28;20037;-68
2023/07/04 09:31:55;;;;;;;5.80;1.65;;;29.70;37.80;;;27.36;46.31;95910.03;4998878;28;20041;-68
2023/07/04 09:34:36;;;;;;;3.53;1.83;;;30.40;38.00;;;27.74;45.52;95899.84;4978449;28;20374;-72
2023/07/04 09:37:15;;;;;;;4.38;2.80;;;30.80;36.80;;;28.04;42.42;95873.22;4999593;28;20029;-71
2023/07/04 09:39:55;;;;;;;4.70;2.30;;;30.70;35.30;;;27.97;41.92;95878.25;5015965;28;20440;-68
2023/07/04 09:42:40;;;;;;;;;;;30.20;36.00;;;28.13;40.93;95870.59;5011569;28;20025;-68
2023/07/04 09:45:08;;;;;;;5.45;2.50;;;30.60;34.40;;;28.24;43.29;95888.97;4992177;28;19940;-68
2023/07/04 09:47:34;;;;;;;7.00;2.58;;;30.50;34.30;;;28.23;42.76;95890.09;4997585;28;20049;-68
2023/07/04 09:50:30;;;;;;;5.68;2.85;;;30.30;34.80;;;28.13;39.98;95867.91;4998395;28;20503;-68
2023/07/04 09:53:11;;;;;;;5.05;2.30;;;30.10;35.10;;;28.20;41.08;95865.56;5016298;28;20413;-71
2023/07/04 09:55:38;;;;;;;4.85;2.53;;;30.40;35.30;;;28.23;42.51;95886.59;4998081;28;20419;-67
2023/07/04 09:58:21;;;;;;;4.70;2.35;;;30.30;35.70;;;28.27;40.44;95860.53;4998387;28;20096;-67
2023/07/04 10:01:12;;;;;;;5.88;2.50;;;30.50;35.50;;;28.45;40.36;95856.06;4997971;28;20397;-68
2023/07/04 10:03:39;;;;;;;4.45;2.45;;;31.00;34.20;;;28.62;41.28;95883.22;5013537;28;20030;-68
2023/07/04 10:06:06;;;;;;;6.20;3.13;;;31.10;33.80;;;28.61;40.96;95871.59;4998018;28;20040;-68
2023/07/04 10:08:33;;;;;;;4.20;2.65;;;31.00;33.90;;;28.55;40.37;95859.31;5014512;28;20116;-69
2023/07/04 10:10:59;;;;;;;6.90;3.13;;;30.70;33.80;;;28.77;40.45;95863.91;4999929;28;20034;-70
2023/07/04 10:13:38;;;;;;;5.40;3.30;;;31.70;33.20;;;29.21;38.21;95841.34;5031581;28;20084;-68
2023/07/04 10:16:23;;;;;;;5.87;3.40;;;32.60;31.90;;;29.71;37.71;95843.72;4998682;28;20405;-70
2023/07/04 10:18:48;;;;;;;5.15;2.95;;;33.30;31.00;;;30.17;38.96;95850.47;5030485;28;20037;-68
2023/07/04 10:21:14;;;;;;;5.68;2.75;;;33.90;30.40;;;30.51;38.35;95837.97;4998045;28;20049;-70
2023/07/04 10:23:40;;;;;;;5.68;3.13;;;34.00;30.30;;;30.76;37.63;95847.97;5031082;28;20087;-71
2023/07/04 10:26:06;;;;;;;5.90;3.10;;;34.40;29.30;;;31.04;37.98;95835.59;5013976;28;20052;-68